KBEH

Southwest Michigan Regional Airport

Benton Harbor, Michigan, USA
METAR KBEH 220553Z AUTO 00000KT 10SM CLR 04/M02 A3038 RMK AO2 SLP290 T00391017 10089 20039 58004
Observed Flight Rules
Apr-22 @ 05:53 UTC (57 minutes ago) Visual Flight Rules
Visibility Clouds
10 miles
  • Clear skies
Temperatures Readings
Current 4°C / 39°F
Dewpoint -2°C / 28°F
Humidity 65%
Altimeter 30.38" Hg
Pressure 1029 hPa
Elevation 191
METAR KBEH 220553Z AUTO 00000KT 10SM CLR 04/M02 A3038 RMK AO2 SLP290 T00391017 10089 20039 58004
Observed Flight Rules
Apr-22 @ 05:53 UTC
(57 minutes ago)
VFR
Clouds
  • Clear skies
Temperature Dewpoint
4°C / 39°F -2°C / 28°F
Humidity Altimeter Pressure
65% 30.38" Hg 1029 hPa